KGVT

Majors Airport

Greenville, Texas, USA
METAR KGVT 191510Z AUTO 21009KT 10SM CLR 31/21 A2991 RMK AO2
Observed Flight Rules
Aug-19 @ 15:10 UTC (27 minutes ago) Visual Flight Rules
Wind Visibility Clouds
210° at 9 knots 10 miles
  • Clear skies
Temperatures Readings
Current 31°C / 88°F
Dewpoint 21°C / 70°F
Humidity 55%
Altimeter 29.91" Hg
Pressure 1013 hPa
Elevation 163
METAR KGVT 191510Z AUTO 21009KT 10SM CLR 31/21 A2991 RMK AO2
Observed Flight Rules
Aug-19 @ 15:10 UTC
(27 minutes ago)
VFR
Wind Visibility
210° at 9 knots 10 miles
Clouds
  • Clear skies
Temperature Dewpoint
31°C / 88°F 21°C / 70°F
Humidity Altimeter Pressure
55% 29.91" Hg 1013 hPa